Time;durP1;ratioP1;P1;durP2;ratioP2;P2;SDS_P1;SDS_P2;PMS_P1;PMS_P2;Temp;Humidity;BMP_temperature;BMP_pressure;BME280_temperature;BME280_humidity;BME280_pressure;Samples;Min_cycle;Max_cycle;Signal;HPM_P1;HPM_P2
2023/01/28 00:02:16;;;;;;;9.57;7.43;;;6.00;99.90;;;;;;4997950;28;20251;-87
2023/01/28 00:04:41;;;;;;;9.73;7.75;;;5.90;99.90;;;;;;4998152;28;20215;-83
2023/01/28 00:07:07;;;;;;;9.35;8.40;;;6.10;99.90;;;;;;4998184;28;20219;-87
2023/01/28 00:09:32;;;;;;;8.95;7.72;;;6.30;99.90;;;;;;4998066;28;20532;-87
2023/01/28 00:11:58;;;;;;;10.43;8.50;;;6.10;99.90;;;;;;4998334;28;20220;-87
2023/01/28 00:14:24;;;;;;;10.18;7.32;;;5.90;99.90;;;;;;4998423;28;20173;-85
2023/01/28 00:16:49;;;;;;;8.55;7.63;;;5.90;99.90;;;;;;4998316;28;20180;-84
2023/01/28 00:19:15;;;;;;;9.65;7.05;;;6.00;99.90;;;;;;4998518;28;20189;-82
2023/01/28 00:21:40;;;;;;;9.07;7.90;;;5.70;99.90;;;;;;4998376;28;20505;-85
2023/01/28 00:24:08;;;;;;;9.45;8.45;;;5.40;99.90;;;;;;4998087;28;20157;-84
2023/01/28 00:26:34;;;;;;;9.02;7.65;;;5.60;99.90;;;;;;4997922;28;20193;-84
2023/01/28 00:29:00;;;;;;;10.25;8.15;;;6.00;99.90;;;;;;4996804;28;20180;-85
2023/01/28 00:31:26;;;;;;;9.07;8.05;;;5.60;99.90;;;;;;4997969;28;20209;-87
2023/01/28 00:33:53;;;;;;;7.95;7.15;;;5.40;99.90;;;;;;4997746;28;20177;-88
2023/01/28 00:36:21;;;;;;;9.25;8.18;;;5.70;99.90;;;;;;4997418;28;20600;-88
2023/01/28 00:38:57;;;;;;;13.02;7.93;;;5.60;99.90;;;;;;4997803;28;20633;-85
2023/01/28 00:41:28;;;;;;;8.25;7.35;;;5.80;99.90;;;;;;4997671;28;20724;-82
2023/01/28 00:43:54;;;;;;;10.40;6.55;;;5.70;99.90;;;;;;4997811;28;20244;-87
2023/01/28 00:46:21;;;;;;;8.60;7.53;;;5.60;99.90;;;;;;4997324;28;20193;-84
2023/01/28 00:48:47;;;;;;;9.55;7.32;;;5.80;99.90;;;;;;4997978;28;20255;-87
2023/01/28 00:51:19;;;;;;;7.78;7.07;;;5.90;99.90;;;;;;4995867;28;20247;-88
2023/01/28 00:53:45;;;;;;;8.50;7.38;;;5.70;99.90;;;;;;4997753;28;20223;-89
2023/01/28 00:56:16;;;;;;;7.57;6.50;;;5.70;99.90;;;;;;4997718;28;20531;-86
2023/01/28 00:58:42;;;;;;;9.48;7.35;;;5.80;99.90;;;;;;4997350;28;20626;-87
2023/01/28 01:01:11;;;;;;;7.90;7.10;;;5.80;99.90;;;;;;4997333;28;20208;-88
2023/01/28 01:03:37;;;;;;;7.43;6.45;;;5.70;99.90;;;;;;4997926;28;20205;-83
2023/01/28 01:06:03;;;;;;;9.40;7.78;;;5.70;99.90;;;;;;4996931;28;20175;-88
2023/01/28 01:08:33;;;;;;;7.28;6.57;;;5.80;99.90;;;;;;4996873;28;20215;-87
2023/01/28 01:11:03;;;;;;;8.23;7.38;;;5.80;99.90;;;;;;4996234;28;20185;-79
2023/01/28 01:13:31;;;;;;;7.97;7.15;;;5.80;99.90;;;;;;4997502;28;20625;-86
2023/01/28 01:16:09;;;;;;;13.38;8.10;;;5.90;99.90;;;;;;4997165;28;20253;-86
2023/01/28 01:18:36;;;;;;;8.93;8.02;;;6.30;99.90;;;;;;4997183;28;20169;-86
2023/01/28 01:21:06;;;;;;;12.85;8.60;;;5.90;99.90;;;;;;4996427;28;20594;-88
2023/01/28 01:23:31;;;;;;;9.52;8.00;;;5.70;99.90;;;;;;4996972;28;20170;-78
2023/01/28 01:25:57;;;;;;;9.23;7.55;;;5.60;99.90;;;;;;4996779;28;20709;-86
2023/01/28 01:28:23;;;;;;;9.68;8.45;;;5.70;99.90;;;;;;4996701;28;20263;-84
2023/01/28 01:30:49;;;;;;;10.02;8.93;;;5.80;99.90;;;;;;4997127;28;20189;-87
2023/01/28 01:33:15;;;;;;;10.60;8.55;;;5.90;99.90;;;;;;5003307;28;20166;-84
2023/01/28 01:35:41;;;;;;;9.73;8.27;;;6.00;99.90;;;;;;5003545;28;20165;-83
2023/01/28 01:38:07;;;;;;;9.18;8.15;;;6.00;99.90;;;;;;4997701;28;20180;-77
2023/01/28 01:40:34;;;;;;;11.13;8.55;;;5.80;99.90;;;;;;4993891;28;20189;-79
2023/01/28 01:42:59;;;;;;;9.23;8.23;;;5.80;99.90;;;;;;4995687;28;20227;-78
2023/01/28 01:45:27;;;;;;;11.88;8.50;;;5.90;99.90;;;;;;4995134;28;20161;-78
2023/01/28 01:47:58;;;;;;;10.73;8.32;;;6.00;99.90;;;;;;4995889;28;20661;-77
2023/01/28 01:50:37;;;;;;;13.35;8.80;;;5.90;99.90;;;;;;4995994;28;20192;-78
2023/01/28 01:53:13;;;;;;;9.75;8.10;;;5.90;99.90;;;;;;4996022;28;20569;-77
2023/01/28 01:55:42;;;;;;;10.88;7.85;;;5.70;99.90;;;;;;4996537;28;20168;-83
2023/01/28 01:58:11;;;;;;;10.43;8.07;;;5.50;99.90;;;;;;4996594;28;20204;-86
2023/01/28 02:00:38;;;;;;;9.60;7.88;;;5.30;99.90;;;;;;4996362;28;20203;-86
2023/01/28 02:03:04;;;;;;;9.98;8.23;;;5.30;99.90;;;;;;4995573;28;20173;-87
2023/01/28 02:05:29;;;;;;;11.20;8.65;;;5.50;99.90;;;;;;4995125;28;20169;-87
2023/01/28 02:10:43;;;;;;;10.25;8.40;;;5.50;99.90;;;;;;4996321;28;20200;-83
2023/01/28 02:13:08;;;;;;;10.45;8.10;;;5.30;99.90;;;;;;4995946;28;20176;-89
2023/01/28 02:15:34;;;;;;;9.95;8.13;;;5.40;99.90;;;;;;4996412;28;20177;-87
2023/01/28 02:18:00;;;;;;;9.30;8.23;;;5.50;99.90;;;;;;4996756;28;20177;-85
2023/01/28 02:20:48;;;;;;;10.90;8.77;;;5.70;99.90;;;;;;4997791;28;20193;-85
2023/01/28 02:23:25;;;;;;;10.98;7.88;;;5.80;99.90;;;;;;5000638;28;20192;-84
2023/01/28 02:26:09;;;;;;;12.07;8.38;;;5.70;99.90;;;;;;4997351;28;20171;-81
2023/01/28 02:28:50;;;;;;;9.77;7.72;;;5.80;99.90;;;;;;4995291;28;20768;-77
2023/01/28 02:31:51;;;;;;;12.55;8.98;;;5.90;99.90;;;;;;4993536;28;20229;-79
2023/01/28 02:34:20;;;;;;;11.68;9.07;;;5.80;99.90;;;;;;4973046;28;20193;-77
2023/01/28 02:36:56;;;;;;;12.55;8.23;;;5.70;99.90;;;;;;4993099;28;20188;-86
2023/01/28 02:39:47;;;;;;;13.35;8.85;;;5.70;99.90;;;;;;4995725;28;20176;-84
2023/01/28 02:42:24;;;;;;;11.35;8.82;;;5.70;99.90;;;;;;4995475;28;20193;-85
2023/01/28 02:45:00;;;;;;;9.10;7.78;;;5.80;99.90;;;;;;5111825;27;21149;-86
2023/01/28 02:47:58;;;;;;;12.23;9.32;;;5.60;99.90;;;;;;5112266;28;20194;-84
2023/01/28 02:50:47;;;;;;;10.43;8.45;;;5.70;99.90;;;;;;5112125;28;20209;-86
2023/01/28 02:53:45;;;;;;;11.52;8.82;;;5.80;99.90;;;;;;5112744;28;20166;-85
2023/01/28 02:56:13;;;;;;;10.07;7.68;;;5.80;99.90;;;;;;5112779;28;20242;-85
2023/01/28 02:58:59;;;;;;;11.35;9.70;;;5.70;99.90;;;;;;5113251;28;20215;-80
2023/01/28 03:01:37;;;;;;;11.63;8.65;;;5.80;99.90;;;;;;5112830;28;20193;-86
2023/01/28 03:04:19;;;;;;;12.02;9.63;;;5.60;99.90;;;;;;5112865;28;20200;-86
2023/01/28 03:06:52;;;;;;;10.88;7.63;;;5.20;99.90;;;;;;5112207;28;20629;-86
2023/01/28 03:09:22;;;;;;;10.90;8.57;;;5.20;99.90;;;;;;5124860;28;20157;-81
2023/01/28 03:37:14;;;;;;;14.07;10.18;;;5.50;99.90;;;;;;5111691;28;20322;-85
2023/01/28 03:39:39;;;;;;;13.48;9.32;;;5.70;99.90;;;;;;5111264;28;20186;-84
2023/01/28 03:42:08;;;;;;;14.15;10.32;;;5.70;99.90;;;;;;5109729;28;20266;-86
2023/01/28 03:44:52;;;;;;;12.70;10.02;;;5.50;99.90;;;;;;5111254;28;20540;-78
2023/01/28 03:47:23;;;;;;;12.27;9.35;;;5.60;99.90;;;;;;5111512;28;20153;-87
2023/01/28 03:49:51;;;;;;;12.07;8.80;;;5.50;99.90;;;;;;5110508;28;20265;-83
2023/01/28 03:52:29;;;;;;;14.13;9.73;;;5.50;99.90;;;;;;5109697;28;20169;-85
2023/01/28 03:54:55;;;;;;;14.68;9.18;;;5.40;99.90;;;;;;5105440;28;20165;-84
2023/01/28 03:57:25;;;;;;;12.57;9.18;;;5.40;99.90;;;;;;5097009;28;20162;-84
2023/01/28 03:59:51;;;;;;;12.38;9.38;;;5.50;99.90;;;;;;5096569;28;20186;-86
2023/01/28 04:02:19;;;;;;;10.40;8.48;;;5.70;99.90;;;;;;5096826;28;20204;-86
2023/01/28 04:04:45;;;;;;;11.93;8.55;;;5.70;99.90;;;;;;5095353;28;20598;-88
2023/01/28 04:07:15;;;;;;;11.65;8.82;;;5.60;99.90;;;;;;5096896;28;20150;-82
2023/01/28 04:09:42;;;;;;;11.23;8.85;;;5.40;99.90;;;;;;5097133;28;20209;-86
2023/01/28 04:12:08;;;;;;;9.88;8.57;;;5.30;99.90;;;;;;5096917;28;20222;-84
2023/01/28 04:14:34;;;;;;;13.73;9.27;;;5.50;99.90;;;;;;5096864;28;20529;-88
2023/01/28 04:17:00;;;;;;;17.23;10.10;;;5.30;99.90;;;;;;5096670;28;20222;-86
2023/01/28 04:19:26;;;;;;;13.93;9.18;;;5.30;99.90;;;;;;5097138;28;20219;-87
2023/01/28 04:21:55;;;;;;;12.73;9.35;;;5.30;99.90;;;;;;5096458;28;20519;-86
2023/01/28 04:24:23;;;;;;;13.57;10.18;;;5.20;99.90;;;;;;5096272;28;20684;-84
2023/01/28 04:26:49;;;;;;;13.73;8.93;;;5.10;99.90;;;;;;5096436;28;20166;-83
2023/01/28 04:29:14;;;;;;;13.00;9.90;;;5.20;99.90;;;;;;5096273;28;20173;-86
2023/01/28 04:31:40;;;;;;;10.73;8.88;;;5.00;99.90;;;;;;5096268;28;20235;-86
2023/01/28 04:34:06;;;;;;;15.55;10.68;;;5.20;99.90;;;;;;5096393;28;20166;-84
2023/01/28 04:36:31;;;;;;;10.23;8.30;;;5.10;99.90;;;;;;5096468;28;20170;-83
2023/01/28 04:38:57;;;;;;;13.13;9.65;;;5.00;99.90;;;;;;5095955;28;20203;-79
2023/01/28 04:41:22;;;;;;;9.45;8.13;;;5.20;99.90;;;;;;5095225;28;20181;-80
2023/01/28 04:43:48;;;;;;;11.52;9.05;;;5.40;99.90;;;;;;5095374;28;20292;-83
2023/01/28 04:46:15;;;;;;;14.73;9.38;;;5.60;99.90;;;;;;5095525;28;20162;-83
2023/01/28 04:48:41;;;;;;;20.35;9.57;;;5.50;99.90;;;;;;5095234;28;20184;-83
2023/01/28 04:51:06;;;;;;;11.85;8.43;;;5.40;99.90;;;;;;5095108;28;20654;-83
2023/01/28 04:53:32;;;;;;;8.73;7.03;;;5.50;99.90;;;;;;5096088;28;20173;-83
2023/01/28 04:55:58;;;;;;;10.95;7.80;;;5.50;99.90;;;;;;5096107;28;20237;-81
2023/01/28 04:58:24;;;;;;;10.25;8.02;;;5.50;99.90;;;;;;5095720;28;20162;-88
2023/01/28 05:00:57;;;;;;;18.33;7.32;;;5.50;99.90;;;;;;5095673;28;20645;-84
2023/01/28 05:03:23;;;;;;;9.35;7.15;;;5.40;99.90;;;;;;5095644;28;20194;-85
2023/01/28 05:05:50;;;;;;;13.45;7.72;;;5.30;99.90;;;;;;5095494;28;20533;-83
2023/01/28 05:08:16;;;;;;;9.80;7.15;;;5.40;99.90;;;;;;5094866;28;20162;-77
2023/01/28 05:10:42;;;;;;;8.23;6.78;;;5.10;99.90;;;;;;5095274;28;20177;-86
2023/01/28 05:13:08;;;;;;;18.30;8.00;;;4.90;99.90;;;;;;5095339;28;20220;-77
2023/01/28 05:15:33;;;;;;;8.40;7.50;;;5.00;99.90;;;;;;5095876;28;20162;-78
2023/01/28 05:17:59;;;;;;;9.77;7.32;;;4.90;99.90;;;;;;5094112;28;20264;-81
2023/01/28 05:20:25;;;;;;;11.00;7.38;;;4.80;99.90;;;;;;5095726;28;20185;-77
2023/01/28 05:22:51;;;;;;;11.48;6.85;;;4.80;99.90;;;;;;5095847;28;20245;-85
2023/01/28 05:25:16;;;;;;;9.05;7.53;;;4.90;99.90;;;;;;5102958;28;20652;-84
2023/01/28 05:27:42;;;;;;;10.30;7.78;;;5.10;99.90;;;;;;5108547;28;20524;-82
2023/01/28 05:30:08;;;;;;;11.23;7.05;;;5.10;99.90;;;;;;5108034;28;20182;-85
2023/01/28 05:32:34;;;;;;;6.90;6.05;;;5.10;99.90;;;;;;5097395;28;20170;-86
2023/01/28 05:34:59;;;;;;;9.48;8.05;;;5.10;99.90;;;;;;5095770;28;20258;-87
2023/01/28 05:37:25;;;;;;;20.15;7.55;;;5.20;99.90;;;;;;5095176;28;20162;-86
2023/01/28 05:39:50;;;;;;;8.10;6.60;;;5.40;99.90;;;;;;5095071;28;20599;-83
2023/01/28 05:42:17;;;;;;;8.25;7.10;;;5.40;99.90;;;;;;5094979;28;20191;-84
2023/01/28 05:44:43;;;;;;;7.25;6.43;;;5.30;99.90;;;;;;5095005;28;20201;-81
2023/01/28 05:47:08;;;;;;;8.75;6.68;;;5.20;99.90;;;;;;5094757;28;20290;-85
2023/01/28 05:49:34;;;;;;;8.75;7.03;;;5.10;99.90;;;;;;5094866;28;20169;-87
2023/01/28 05:52:01;;;;;;;7.65;6.72;;;4.90;99.90;;;;;;5094456;28;20184;-84
2023/01/28 05:54:27;;;;;;;21.75;7.90;;;5.00;99.90;;;;;;5092884;28;20252;-81
2023/01/28 05:56:52;;;;;;;8.57;7.78;;;5.20;99.90;;;;;;5093853;28;20157;-86
2023/01/28 05:59:18;;;;;;;9.23;7.90;;;5.20;99.90;;;;;;5094539;28;20189;-87
2023/01/28 06:01:43;;;;;;;7.00;5.85;;;5.10;99.90;;;;;;5094142;28;20186;-87
2023/01/28 06:04:09;;;;;;;9.70;7.35;;;5.00;99.90;;;;;;5093947;28;20214;-87
2023/01/28 06:06:34;;;;;;;10.60;7.32;;;4.90;99.90;;;;;;5093677;28;20165;-78
2023/01/28 06:09:00;;;;;;;6.75;6.05;;;5.00;99.90;;;;;;5093813;28;20576;-81
2023/01/28 06:11:26;;;;;;;7.22;6.50;;;4.90;99.90;;;;;;5094169;28;20256;-83
2023/01/28 06:13:51;;;;;;;7.63;6.82;;;4.90;99.90;;;;;;5093731;28;20166;-84
2023/01/28 06:16:17;;;;;;;12.07;6.13;;;4.70;99.90;;;;;;5093810;28;20162;-86
2023/01/28 06:18:43;;;;;;;8.05;6.43;;;4.70;99.90;;;;;;5093432;28;20252;-78
2023/01/28 06:21:09;;;;;;;8.07;7.28;;;4.80;99.90;;;;;;5093644;28;20186;-78
2023/01/28 06:23:35;;;;;;;8.60;7.60;;;4.90;99.90;;;;;;5093728;28;20204;-77
2023/01/28 06:26:00;;;;;;;7.65;6.85;;;5.00;99.90;;;;;;5093757;28;20181;-79
2023/01/28 06:28:26;;;;;;;7.22;6.47;;;5.10;99.90;;;;;;5093395;28;20161;-84
2023/01/28 06:30:52;;;;;;;11.95;6.93;;;5.20;99.90;;;;;;5095197;28;20211;-85
2023/01/28 06:33:18;;;;;;;11.80;7.80;;;5.10;99.90;;;;;;5094296;28;20249;-85
2023/01/28 06:35:44;;;;;;;12.00;7.00;;;5.20;99.90;;;;;;5094209;28;20166;-84
2023/01/28 06:38:11;;;;;;;7.38;6.68;;;5.40;99.90;;;;;;5094056;28;20158;-78
2023/01/28 06:40:37;;;;;;;10.65;7.07;;;5.20;99.90;;;;;;5093603;28;20194;-88
2023/01/28 06:43:03;;;;;;;5.93;5.38;;;4.80;99.90;;;;;;5093839;28;20204;-85
2023/01/28 06:45:30;;;;;;;6.82;6.10;;;4.80;99.90;;;;;;5094530;28;20250;-88
2023/01/28 06:47:55;;;;;;;6.43;5.70;;;4.80;99.90;;;;;;5094163;28;20157;-85
2023/01/28 06:50:21;;;;;;;8.38;6.78;;;4.70;99.90;;;;;;5093437;28;20189;-83
2023/01/28 06:52:47;;;;;;;7.10;6.35;;;4.70;99.90;;;;;;5094077;28;20204;-87
2023/01/28 06:55:12;;;;;;;7.78;6.68;;;4.70;99.90;;;;;;5093595;28;20166;-78
2023/01/28 06:57:39;;;;;;;9.23;6.50;;;4.70;99.90;;;;;;5093262;28;20166;-86
2023/01/28 07:00:07;;;;;;;9.45;7.88;;;4.70;99.90;;;;;;5093256;28;20185;-77
2023/01/28 07:02:32;;;;;;;9.98;6.93;;;4.60;99.90;;;;;;5093602;28;20158;-88
2023/01/28 07:04:58;;;;;;;8.20;6.90;;;4.70;99.90;;;;;;5093165;28;20217;-78
2023/01/28 07:07:24;;;;;;;8.65;7.15;;;4.70;99.90;;;;;;5092022;28;20557;-86
2023/01/28 07:09:49;;;;;;;13.00;7.57;;;4.40;99.90;;;;;;5093175;28;20198;-80
2023/01/28 07:12:15;;;;;;;8.23;6.97;;;4.20;99.90;;;;;;5093795;28;20162;-81
2023/01/28 07:14:40;;;;;;;10.95;7.18;;;4.30;99.90;;;;;;5093873;28;20185;-86
2023/01/28 07:17:06;;;;;;;7.82;6.95;;;4.40;99.90;;;;;;5093686;28;20197;-79
2023/01/28 07:19:31;;;;;;;9.73;6.95;;;4.50;99.90;;;;;;5093640;28;20211;-82
2023/01/28 07:21:59;;;;;;;9.05;6.82;;;4.60;99.90;;;;;;5094337;28;20649;-86
2023/01/28 07:24:25;;;;;;;8.50;7.03;;;4.60;99.90;;;;;;5093017;28;20206;-83
2023/01/28 07:26:51;;;;;;;9.25;7.40;;;4.40;99.90;;;;;;5093500;28;20162;-87
2023/01/28 07:29:17;;;;;;;9.98;8.15;;;4.30;99.90;;;;;;5092426;28;20219;-86
2023/01/28 07:31:42;;;;;;;12.00;7.22;;;4.30;99.90;;;;;;5097339;28;20189;-88
2023/01/28 07:34:08;;;;;;;8.40;7.00;;;4.20;99.90;;;;;;5096938;28;20236;-85
2023/01/28 07:36:34;;;;;;;9.70;7.30;;;4.30;99.90;;;;;;5096785;28;20162;-77
2023/01/28 07:39:00;;;;;;;6.82;6.10;;;4.20;99.90;;;;;;5097125;28;20223;-83
2023/01/28 07:41:26;;;;;;;13.13;7.82;;;4.10;99.90;;;;;;5097055;28;20228;-82
2023/01/28 07:43:52;;;;;;;11.77;7.63;;;4.40;99.90;;;;;;5097169;28;20217;-78
2023/01/28 07:46:17;;;;;;;18.00;11.30;;;4.40;99.90;;;;;;5097517;28;20196;-87
2023/01/28 07:48:44;;;;;;;7.47;6.78;;;4.50;99.90;;;;;;5097049;28;20205;-85
2023/01/28 07:51:10;;;;;;;8.52;6.82;;;4.50;99.90;;;;;;5097029;28;20177;-84
2023/01/28 07:53:36;;;;;;;9.10;7.47;;;4.50;99.90;;;;;;5097164;28;20166;-78
2023/01/28 07:56:03;;;;;;;15.02;7.05;;;4.60;99.90;;;;;;5096363;28;20158;-84
2023/01/28 07:58:29;;;;;;;8.73;7.43;;;4.80;99.90;;;;;;5096630;28;20177;-81
2023/01/28 08:00:58;;;;;;;8.55;7.03;;;5.10;99.90;;;;;;5095826;28;20185;-82
2023/01/28 08:03:24;;;;;;;13.57;7.60;;;5.10;99.90;;;;;;5096627;28;20201;-81
2023/01/28 08:05:52;;;;;;;9.02;7.85;;;5.10;99.90;;;;;;5096270;28;20665;-81
2023/01/28 08:08:18;;;;;;;9.70;7.28;;;5.20;99.90;;;;;;5095271;28;20695;-84
2023/01/28 08:10:44;;;;;;;10.57;8.50;;;5.20;99.90;;;;;;5095948;28;20213;-86
2023/01/28 08:13:11;;;;;;;11.05;7.55;;;5.40;99.90;;;;;;5096191;28;20204;-77
2023/01/28 08:15:37;;;;;;;9.95;8.27;;;5.30;99.90;;;;;;5096506;28;20201;-78
2023/01/28 08:18:04;;;;;;;7.93;6.68;;;5.10;99.90;;;;;;5096645;28;20154;-79
2023/01/28 08:20:30;;;;;;;9.30;7.80;;;4.80;99.90;;;;;;5097491;28;20791;-84
2023/01/28 08:23:14;;;;;;;9.73;8.48;;;4.70;99.90;;;;;;5096675;28;20649;-77
2023/01/28 08:25:40;;;;;;;11.90;8.00;;;4.70;99.90;;;;;;5095203;28;20213;-79
2023/01/28 08:28:06;;;;;;;14.30;8.45;;;4.80;99.90;;;;;;5096465;28;20185;-79
2023/01/28 08:30:32;;;;;;;10.55;8.15;;;4.70;99.90;;;;;;5095315;28;20558;-76
2023/01/28 08:32:59;;;;;;;20.77;8.43;;;4.60;99.90;;;;;;5096761;28;20173;-77
2023/01/28 08:35:25;;;;;;;12.40;9.07;;;4.80;99.90;;;;;;5095434;28;20173;-76
2023/01/28 08:37:51;;;;;;;18.60;9.02;;;4.80;99.90;;;;;;5095124;28;20197;-80
2023/01/28 08:40:17;;;;;;;10.23;8.68;;;4.90;99.90;;;;;;5095317;28;20192;-77
2023/01/28 08:42:51;;;;;;;11.93;9.00;;;4.80;99.90;;;;;;5094532;28;20166;-77
2023/01/28 08:45:19;;;;;;;12.10;9.07;;;4.50;99.90;;;;;;5094855;28;20162;-76
2023/01/28 08:47:52;;;;;;;12.95;9.60;;;4.60;99.90;;;;;;5093811;28;20162;-77
2023/01/28 08:50:19;;;;;;;13.50;9.73;;;4.60;99.90;;;;;;5093587;28;20684;-78
2023/01/28 08:52:46;;;;;;;16.10;9.95;;;4.60;99.90;;;;;;5092945;28;20165;-77
2023/01/28 08:55:12;;;;;;;14.32;9.35;;;4.50;99.90;;;;;;5094180;28;20166;-76
2023/01/28 08:57:38;;;;;;;15.95;9.77;;;4.40;99.90;;;;;;5094877;28;20173;-76
2023/01/28 09:00:05;;;;;;;18.58;10.57;;;4.20;99.90;;;;;;5093462;28;20637;-77
2023/01/28 09:02:31;;;;;;;15.45;10.13;;;4.30;99.90;;;;;;5094624;28;20166;-77
2023/01/28 09:04:57;;;;;;;13.20;9.57;;;4.60;99.90;;;;;;5093450;28;20665;-77
2023/01/28 09:07:22;;;;;;;14.23;10.45;;;4.60;99.90;;;;;;5094576;28;20522;-77
2023/01/28 09:09:48;;;;;;;16.73;11.30;;;4.60;99.90;;;;;;5094954;28;20276;-78
2023/01/28 09:12:13;;;;;;;15.52;10.55;;;4.80;99.90;;;;;;5093355;28;20173;-77
2023/01/28 09:14:39;;;;;;;13.95;9.73;;;4.70;99.90;;;;;;5094964;28;20154;-78
2023/01/28 09:17:05;;;;;;;16.20;10.10;;;4.60;99.90;;;;;;5093297;28;20194;-78
2023/01/28 09:19:30;;;;;;;13.52;10.00;;;4.40;99.90;;;;;;5094650;28;20523;-81
2023/01/28 09:21:56;;;;;;;13.07;9.88;;;4.60;99.90;;;;;;5088882;28;20556;-77
2023/01/28 09:24:22;;;;;;;12.60;9.15;;;4.70;99.90;;;;;;5094000;28;20552;-77
2023/01/28 09:26:48;;;;;;;17.23;9.65;;;4.60;99.90;;;;;;5106534;28;20248;-81
2023/01/28 09:29:14;;;;;;;15.63;10.32;;;4.60;99.90;;;;;;5114743;28;20172;-79
2023/01/28 09:31:41;;;;;;;17.52;10.65;;;4.70;99.90;;;;;;5103140;28;20189;-79
2023/01/28 09:34:07;;;;;;;20.30;11.93;;;4.50;99.90;;;;;;5094344;28;20173;-83
2023/01/28 09:36:33;;;;;;;17.23;10.82;;;4.40;99.90;;;;;;5086536;28;20177;-77
2023/01/28 09:38:59;;;;;;;14.35;10.25;;;4.40;99.90;;;;;;5094319;28;20174;-77
2023/01/28 09:41:49;;;;;;;17.52;11.77;;;4.50;99.90;;;;;;5093312;28;20190;-77
2023/01/28 09:44:43;;;;;;;16.40;11.43;;;4.50;99.90;;;;;;5078126;28;20271;-76
2023/01/28 09:47:19;;;;;;;16.30;11.48;;;4.80;99.90;;;;;;5102139;28;20178;-82
2023/01/28 09:49:49;;;;;;;18.50;12.35;;;4.80;99.90;;;;;;5075371;28;20182;-78
2023/01/28 09:52:18;;;;;;;19.17;11.40;;;4.50;99.90;;;;;;5093686;28;20660;-79
2023/01/28 09:54:48;;;;;;;15.50;10.55;;;4.60;99.90;;;;;;5095997;28;20539;-80
2023/01/28 09:57:40;;;;;;;18.70;11.80;;;4.80;99.90;;;;;;5093982;28;20203;-78
2023/01/28 10:00:39;;;;;;;19.67;11.32;;;4.90;99.90;;;;;;5094994;28;20654;-78
2023/01/28 10:03:14;;;;;;;16.52;9.90;;;5.00;99.90;;;;;;5090808;28;20614;-80
2023/01/28 10:05:54;;;;;;;15.93;10.73;;;4.60;99.90;;;;;;5093962;28;20269;-79
2023/01/28 10:08:33;;;;;;;13.68;10.05;;;4.50;99.90;;;;;;5094800;28;20162;-84
2023/01/28 10:11:07;;;;;;;18.55;10.23;;;4.50;99.90;;;;;;5093512;28;20718;-79
2023/01/28 10:13:51;;;;;;;17.52;11.07;;;4.60;99.90;;;;;;5092835;28;20203;-78
2023/01/28 10:16:45;;;;;;;18.45;10.70;;;4.50;99.90;;;;;;5093451;28;20182;-78
2023/01/28 10:19:26;;;;;;;20.00;10.68;;;4.90;99.90;;;;;;5093234;28;20185;-78
2023/01/28 10:21:58;;;;;;;15.65;9.85;;;4.90;99.90;;;;;;5092811;28;20272;-80
2023/01/28 10:24:49;;;;;;;15.32;10.57;;;4.90;99.90;;;;;;5097177;28;20205;-79
2023/01/28 10:27:26;;;;;;;15.90;10.25;;;4.90;99.90;;;;;;5091727;28;20182;-82
2023/01/28 10:29:52;;;;;;;22.40;10.68;;;4.50;99.90;;;;;;5093467;28;20189;-80
2023/01/28 10:32:33;;;;;;;15.20;9.18;;;4.40;99.90;;;;;;5093965;28;20166;-80
2023/01/28 10:35:00;;;;;;;12.45;9.10;;;4.50;99.90;;;;;;5106509;28;20161;-79
2023/01/28 10:37:27;;;;;;;15.77;9.98;;;4.40;99.90;;;;;;5115564;28;20173;-79
2023/01/28 10:39:57;;;;;;;11.55;9.45;;;4.60;99.90;;;;;;5115781;28;20185;-79
2023/01/28 10:42:35;;;;;;;14.43;10.18;;;4.60;99.90;;;;;;5114964;28;20186;-78
2023/01/28 10:45:24;;;;;;;14.50;9.60;;;4.60;99.90;;;;;;5113996;28;20193;-78
2023/01/28 10:47:59;;;;;;;14.65;10.13;;;4.80;99.90;;;;;;5112644;28;20194;-78
2023/01/28 10:50:27;;;;;;;18.50;11.32;;;4.80;99.90;;;;;;5113614;28;20196;-79
2023/01/28 10:52:55;;;;;;;17.00;10.50;;;4.70;99.90;;;;;;5113530;28;20162;-77
2023/01/28 10:55:21;;;;;;;16.50;11.20;;;5.00;99.90;;;;;;5113394;28;20158;-80
2023/01/28 10:57:47;;;;;;;22.33;9.43;;;5.00;99.90;;;;;;5110785;28;20184;-77
2023/01/28 11:00:19;;;;;;;14.52;9.38;;;5.30;99.90;;;;;;5112373;28;20189;-77
2023/01/28 11:02:48;;;;;;;17.15;9.27;;;5.30;99.90;;;;;;5099232;28;20185;-78
2023/01/28 11:05:17;;;;;;;11.45;9.50;;;5.00;99.90;;;;;;5103056;28;20614;-80
2023/01/28 11:07:43;;;;;;;11.98;8.80;;;5.00;99.90;;;;;;5106698;28;20162;-77
2023/01/28 11:10:33;;;;;;;14.07;9.35;;;5.00;99.90;;;;;;5103499;28;20221;-77
2023/01/28 11:13:03;;;;;;;14.60;9.02;;;5.20;99.90;;;;;;5099656;28;20173;-77
2023/01/28 11:15:29;;;;;;;14.38;9.80;;;5.20;99.90;;;;;;5101263;28;20235;-78
2023/01/28 11:18:14;;;;;;;14.32;9.52;;;4.90;99.90;;;;;;5099246;28;20169;-77
2023/01/28 11:20:48;;;;;;;13.45;8.80;;;4.90;99.90;;;;;;5098115;28;20194;-79
2023/01/28 11:23:40;;;;;;;12.98;9.27;;;5.10;99.90;;;;;;5097389;28;20190;-79
2023/01/28 11:26:15;;;;;;;11.93;8.80;;;5.00;99.90;;;;;;5099892;28;20223;-79
2023/01/28 11:28:42;;;;;;;23.85;8.60;;;5.30;99.90;;;;;;5100571;28;20177;-78
2023/01/28 11:31:11;;;;;;;18.30;9.23;;;5.30;99.90;;;;;;5099824;28;20189;-78
2023/01/28 11:33:43;;;;;;;14.30;9.13;;;5.10;99.90;;;;;;5102402;28;20570;-77
2023/01/28 11:36:15;;;;;;;15.50;8.93;;;5.00;99.90;;;;;;5104041;28;20164;-78
2023/01/28 11:38:53;;;;;;;12.98;8.45;;;5.10;99.90;;;;;;5094232;28;20166;-77
2023/01/28 11:41:24;;;;;;;15.98;9.98;;;5.20;99.90;;;;;;5094706;28;20218;-78
2023/01/28 11:43:50;;;;;;;11.98;9.30;;;5.00;99.90;;;;;;5093182;28;20662;-77
2023/01/28 11:46:16;;;;;;;13.70;8.13;;;4.80;99.90;;;;;;5095864;28;20170;-77
2023/01/28 11:49:06;;;;;;;13.57;8.90;;;4.70;99.90;;;;;;5095923;28;20186;-78
2023/01/28 11:51:59;;;;;;;12.30;9.05;;;4.70;99.90;;;;;;5095567;28;20196;-77
2023/01/28 11:54:32;;;;;;;10.98;8.38;;;4.80;99.90;;;;;;5095785;28;20211;-78
2023/01/28 11:57:09;;;;;;;12.88;8.70;;;5.00;99.90;;;;;;5095608;28;20173;-77
2023/01/28 11:59:50;;;;;;;13.05;8.93;;;5.00;99.90;;;;;;5095366;28;20709;-78
2023/01/28 12:02:30;;;;;;;13.80;8.25;;;5.10;99.90;;;;;;5095079;28;20180;-77
2023/01/28 12:04:59;;;;;;;11.05;7.85;;;5.20;99.90;;;;;;5102132;28;20243;-77
2023/01/28 12:07:38;;;;;;;9.90;7.80;;;5.00;99.90;;;;;;5094210;28;20327;-78
2023/01/28 12:10:13;;;;;;;11.32;8.30;;;5.00;99.90;;;;;;5092703;28;20199;-80
2023/01/28 12:13:06;;;;;;;22.10;8.35;;;5.20;99.90;;;;;;5086155;28;20641;-78
2023/01/28 12:15:56;;;;;;;12.68;9.00;;;5.40;99.90;;;;;;5094339;28;20273;-79
2023/01/28 12:18:56;;;;;;;12.48;8.52;;;5.10;99.90;;;;;;5109127;28;20180;-77
2023/01/28 12:21:24;;;;;;;13.18;9.48;;;5.20;99.90;;;;;;5100608;28;20186;-78
2023/01/28 12:23:52;;;;;;;16.17;9.20;;;5.20;99.90;;;;;;5111475;28;20358;-78
2023/01/28 12:26:30;;;;;;;16.95;8.93;;;5.00;99.90;;;;;;5094827;28;20219;-78
2023/01/28 12:29:17;;;;;;;11.27;8.25;;;5.30;99.90;;;;;;5094885;28;20656;-77
2023/01/28 12:31:54;;;;;;;12.27;8.52;;;5.40;99.90;;;;;;5093551;28;20227;-78
2023/01/28 12:34:39;;;;;;;11.48;8.68;;;5.50;99.90;;;;;;5113274;28;20169;-78
2023/01/28 12:37:09;;;;;;;13.40;8.50;;;5.60;99.90;;;;;;5074596;28;20182;-77
2023/01/28 12:40:02;;;;;;;10.32;8.27;;;5.50;99.90;;;;;;5094422;28;20455;-79
2023/01/28 12:42:55;;;;;;;23.33;8.93;;;5.40;99.90;;;;;;5093880;28;20166;-78
2023/01/28 12:45:26;;;;;;;12.77;9.07;;;5.10;99.90;;;;;;5094410;28;20216;-79
2023/01/28 12:48:07;;;;;;;12.70;9.38;;;4.80;99.90;;;;;;5093841;28;20205;-79
2023/01/28 12:50:40;;;;;;;12.63;9.15;;;4.80;99.90;;;;;;5094333;28;20628;-77
2023/01/28 12:53:46;;;;;;;13.88;8.25;;;4.90;99.90;;;;;;5093936;28;20166;-78
2023/01/28 12:56:18;;;;;;;12.35;8.95;;;4.90;99.90;;;;;;5092924;28;20270;-79
2023/01/28 12:59:35;;;;;;;9.93;7.93;;;5.00;99.90;;;;;;5095348;28;20672;-84
2023/01/28 13:02:12;;;;;;;11.20;8.75;;;4.80;99.90;;;;;;5085122;28;20189;-82
2023/01/28 13:05:00;;;;;;;11.40;8.23;;;5.00;99.90;;;;;;5091096;28;20259;-85
2023/01/28 13:07:54;;;;;;;12.38;8.48;;;5.30;99.90;;;;;;5092771;28;20182;-78
2023/01/28 13:10:42;;;;;;;11.93;8.88;;;5.30;99.90;;;;;;5092742;28;20602;-80
2023/01/28 13:13:29;;;;;;;8.52;6.93;;;5.50;99.90;;;;;;5094193;28;20521;-78
2023/01/28 13:15:55;;;;;;;7.60;6.30;;;5.50;99.90;;;;;;5092866;28;20174;-78
2023/01/28 13:18:39;;;;;;;10.43;7.82;;;5.30;99.90;;;;;;5092629;28;20192;-79
2023/01/28 13:21:24;;;;;;;12.60;7.55;;;5.10;99.90;;;;;;5093551;28;20185;-77
2023/01/28 13:24:17;;;;;;;9.98;8.07;;;5.20;99.90;;;;;;5093470;28;20622;-78
2023/01/28 13:26:56;;;;;;;10.23;7.30;;;5.10;99.90;;;;;;5093654;28;20180;-78
2023/01/28 13:29:32;;;;;;;15.60;8.85;;;5.00;99.90;;;;;;5092873;28;20169;-78
2023/01/28 13:32:00;;;;;;;11.32;7.38;;;5.10;99.90;;;;;;5093428;28;20203;-79
2023/01/28 13:34:42;;;;;;;11.48;7.80;;;5.00;99.90;;;;;;5092578;28;20216;-80
2023/01/28 13:37:16;;;;;;;11.15;9.00;;;5.20;99.90;;;;;;5092289;28;20185;-78